createdAt,value
2022-09-20T00:01:32.207Z,10.39
2022-09-20T00:04:04.891Z,10.29
2022-09-20T00:06:34.188Z,10.39
2022-09-20T00:09:03.144Z,10.37
2022-09-20T00:11:33.613Z,10.36
2022-09-20T00:14:03.582Z,10.38
2022-09-20T00:16:35.114Z,10.38
2022-09-20T00:19:05.176Z,10.43
2022-09-20T00:21:36.393Z,10.44
2022-09-20T00:24:05.888Z,10.45
2022-09-20T00:26:34.015Z,10.45
2022-09-20T00:29:02.093Z,10.44
2022-09-20T00:31:30.413Z,10.43
2022-09-20T00:34:17.797Z,10.45
2022-09-20T00:36:47.069Z,10.55
2022-09-20T00:39:18.317Z,10.49
2022-09-20T00:41:46.745Z,10.53
2022-09-20T00:44:43.832Z,10.59
2022-09-20T00:47:17.583Z,10.66
2022-09-20T00:49:47.234Z,10.69
2022-09-20T00:52:16.844Z,10.61
2022-09-20T00:54:45.055Z,10.65
2022-09-20T00:57:13.357Z,10.66
2022-09-20T00:59:44.939Z,10.66
2022-09-20T01:02:15.880Z,10.70
2022-09-20T01:04:44.767Z,10.58
2022-09-20T01:07:17.218Z,10.66
2022-09-20T01:09:45.138Z,10.56
2022-09-20T01:12:17.224Z,10.68
2022-09-20T01:14:47.956Z,10.73
2022-09-20T01:17:17.108Z,10.64
2022-09-20T01:19:54.470Z,10.52
2022-09-20T01:22:26.537Z,10.45
2022-09-20T01:25:06.076Z,10.51
2022-09-20T01:27:44.030Z,10.58
2022-09-20T01:30:16.225Z,10.57
2022-09-20T01:32:53.334Z,10.61
2022-09-20T01:35:24.509Z,10.54
2022-09-20T01:38:12.714Z,10.42
2022-09-20T01:40:49.022Z,10.33
2022-09-20T01:43:27.775Z,10.36
2022-09-20T01:45:56.047Z,10.41
2022-09-20T01:48:33.237Z,10.36
2022-09-20T01:51:37.297Z,10.35
2022-09-20T01:54:44.593Z,10.24
2022-09-20T01:57:47.284Z,10.27
2022-09-20T02:00:18.707Z,10.27
2022-09-20T02:03:21.990Z,10.27
2022-09-20T02:06:19.419Z,10.23
2022-09-20T02:09:14.640Z,10.15
2022-09-20T02:11:53.583Z,10.06
2022-09-20T02:14:40.160Z,10.22
2022-09-20T02:17:13.973Z,10.30
2022-09-20T02:20:21.780Z,10.30
2022-09-20T02:23:01.775Z,10.37
2022-09-20T02:25:47.144Z,10.29
2022-09-20T02:28:26.970Z,10.27
2022-09-20T02:31:03.731Z,10.27
2022-09-20T02:33:58.542Z,10.32
2022-09-20T02:36:40.207Z,10.36
2022-09-20T02:39:14.301Z,10.40
2022-09-20T02:42:04.995Z,10.38
2022-09-20T02:44:54.620Z,10.33
2022-09-20T02:47:32.904Z,10.27
2022-09-20T02:50:22.790Z,10.34
2022-09-20T02:53:06.102Z,10.39
2022-09-20T02:55:43.187Z,10.35
2022-09-20T02:58:28.058Z,10.40
2022-09-20T03:01:02.804Z,10.38
2022-09-20T03:03:41.056Z,10.38
2022-09-20T03:06:29.794Z,10.42
2022-09-20T03:09:08.039Z,10.42
2022-09-20T03:11:44.100Z,10.45
2022-09-20T03:14:22.940Z,10.47
2022-09-20T03:17:05.541Z,10.50
2022-09-20T03:19:54.692Z,10.48
2022-09-20T03:22:37.575Z,10.52
2022-09-20T03:25:33.022Z,10.54
2022-09-20T03:28:10.953Z,10.56
2022-09-20T03:30:55.408Z,10.63
2022-09-20T03:33:34.835Z,10.63
2022-09-20T03:36:18.403Z,10.69
2022-09-20T03:39:09.548Z,10.70
2022-09-20T03:42:07.862Z,10.72
2022-09-20T03:45:03.340Z,10.72
2022-09-20T03:47:46.531Z,10.75
2022-09-20T03:50:34.675Z,10.80
2022-09-20T03:53:20.674Z,10.81
2022-09-20T03:56:10.565Z,10.82
2022-09-20T03:58:58.356Z,10.84
2022-09-20T04:01:41.412Z,10.86
2022-09-20T04:04:18.294Z,10.83
2022-09-20T04:07:04.081Z,10.82
2022-09-20T04:10:00.251Z,10.86
2022-09-20T04:12:41.474Z,10.85
2022-09-20T04:15:27.030Z,10.85
2022-09-20T04:18:03.869Z,10.86
2022-09-20T04:20:39.668Z,10.91
2022-09-20T04:23:16.504Z,10.96
2022-09-20T04:25:48.574Z,10.96
2022-09-20T04:28:23.433Z,10.94
2022-09-20T04:30:56.777Z,10.97
2022-09-20T04:33:30.948Z,11.06
2022-09-20T04:36:28.781Z,10.99
2022-09-20T04:39:05.260Z,10.99
2022-09-20T04:42:13.929Z,11.01
2022-09-20T04:45:08.397Z,11.02
2022-09-20T04:48:14.616Z,11.03
2022-09-20T04:51:27.251Z,11.06
2022-09-20T04:54:28.573Z,11.10
2022-09-20T04:57:17.168Z,11.11
2022-09-20T05:00:01.919Z,11.11
2022-09-20T05:02:56.131Z,11.13
2022-09-20T05:05:50.317Z,11.14
2022-09-20T05:08:49.257Z,11.18
2022-09-20T05:11:57.147Z,11.17
2022-09-20T05:14:46.831Z,11.20
2022-09-20T05:17:26.299Z,11.23
2022-09-20T05:20:14.336Z,11.18
2022-09-20T05:23:11.387Z,11.31
2022-09-20T05:26:08.150Z,11.29
2022-09-20T05:28:44.812Z,11.36
2022-09-20T05:31:17.722Z,11.31
2022-09-20T05:33:53.541Z,11.37
2022-09-20T05:36:34.391Z,11.45
2022-09-20T05:39:18.982Z,11.41
2022-09-20T05:41:54.556Z,11.46
2022-09-20T05:44:32.577Z,11.42
2022-09-20T05:47:10.095Z,11.48
2022-09-20T05:49:51.402Z,11.45
2022-09-20T05:52:45.763Z,11.52
2022-09-20T05:55:27.144Z,11.50
2022-09-20T05:58:12.428Z,11.53
2022-09-20T06:13:36.234Z,11.66
2022-09-20T06:20:14.649Z,11.70
2022-09-20T06:22:46.016Z,11.77
2022-09-20T06:25:22.928Z,11.77
2022-09-20T06:27:55.208Z,11.75
2022-09-20T06:30:33.164Z,11.78
2022-09-20T06:33:11.715Z,11.79
2022-09-20T06:35:45.602Z,11.79
2022-09-20T06:38:50.218Z,11.86
2022-09-20T06:41:32.184Z,12.10
2022-09-20T06:44:07.050Z,12.01
2022-09-20T06:46:37.479Z,12.17
2022-09-20T06:49:09.012Z,12.13
2022-09-20T06:51:39.430Z,12.03
2022-09-20T06:54:11.473Z,12.04
2022-09-20T06:56:41.236Z,12.00
2022-09-20T06:59:10.443Z,11.95
2022-09-20T07:01:38.531Z,11.91
2022-09-20T07:04:07.369Z,11.92
2022-09-20T07:06:37.729Z,11.92
2022-09-20T07:09:06.745Z,11.95
2022-09-20T07:11:35.056Z,12.00
2022-09-20T07:14:05.172Z,12.02
2022-09-20T07:16:33.450Z,11.99
2022-09-20T07:19:01.689Z,12.16
2022-09-20T07:21:29.846Z,12.16
2022-09-20T07:23:58.087Z,12.12
2022-09-20T07:26:28.706Z,12.20
2022-09-20T07:28:58.934Z,12.37
2022-09-20T07:31:30.997Z,12.32
2022-09-20T07:33:59.333Z,12.38
2022-09-20T07:36:27.495Z,12.32
2022-09-20T07:38:56.146Z,12.41
2022-09-20T07:41:31.600Z,12.39
2022-09-20T07:44:20.061Z,12.39
2022-09-20T07:46:50.758Z,12.38
2022-09-20T07:49:18.913Z,12.45
2022-09-20T07:51:46.945Z,12.45
2022-09-20T07:54:14.979Z,12.52
2022-09-20T07:56:44.061Z,12.59
2022-09-20T07:59:13.191Z,12.67
2022-09-20T08:01:41.575Z,12.84
2022-09-20T08:04:11.486Z,12.93
2022-09-20T08:06:41.409Z,12.94
2022-09-20T08:09:22.829Z,13.10
2022-09-20T08:11:51.465Z,12.96
2022-09-20T08:14:44.011Z,12.91
2022-09-20T08:17:22.232Z,12.91
2022-09-20T08:20:17.421Z,13.03
2022-09-20T08:23:00.935Z,13.35
2022-09-20T08:25:35.349Z,13.19
2022-09-20T08:28:06.590Z,13.28
2022-09-20T08:30:35.340Z,13.14
2022-09-20T08:33:11.541Z,13.20
2022-09-20T08:35:41.363Z,13.28
2022-09-20T08:45:45.118Z,13.75
2022-09-20T08:48:19.963Z,13.74
2022-09-20T08:50:52.659Z,13.74
2022-09-20T08:53:27.935Z,13.50
2022-09-20T09:03:17.140Z,13.87
2022-09-20T09:06:10.749Z,13.83
2022-09-20T09:08:46.482Z,13.82
2022-09-20T09:11:17.269Z,13.60
2022-09-20T09:16:57.274Z,13.75
2022-09-20T09:19:50.211Z,13.73
2022-09-20T09:22:26.565Z,13.94
2022-09-20T09:25:25.573Z,13.73
2022-09-20T09:27:56.139Z,13.81
2022-09-20T09:30:34.415Z,14.07
2022-09-20T09:33:26.690Z,13.86
2022-09-20T09:36:17.074Z,13.90
2022-09-20T09:38:57.133Z,13.98
2022-09-20T09:42:34.530Z,14.00
2022-09-20T09:45:14.675Z,14.14
2022-09-20T09:48:10.988Z,14.24
2022-09-20T09:52:20.952Z,14.25
2022-09-20T09:55:05.446Z,13.99
2022-09-20T09:58:10.550Z,13.98
2022-09-20T10:00:53.272Z,13.85
2022-09-20T10:03:47.233Z,14.00
2022-09-20T10:06:31.763Z,13.73
2022-09-20T10:09:19.675Z,13.74
2022-09-20T10:12:00.920Z,13.68
2022-09-20T10:14:43.726Z,13.57
2022-09-20T10:17:28.983Z,13.54
2022-09-20T10:20:12.145Z,13.71
2022-09-20T10:23:26.540Z,13.75
2022-09-20T10:25:47.554Z,13.98
2022-09-20T10:28:33.566Z,14.17
2022-09-20T10:31:11.176Z,14.17
2022-09-20T10:33:51.561Z,14.06
2022-09-20T10:36:27.039Z,14.24
2022-09-20T10:39:02.006Z,14.33
2022-09-20T10:42:01.944Z,14.33
2022-09-20T10:44:45.456Z,14.42
2022-09-20T10:47:20.276Z,14.57
2022-09-20T10:49:58.554Z,14.35
2022-09-20T10:52:47.724Z,14.25
2022-09-20T10:55:30.643Z,14.40
2022-09-20T10:58:38.229Z,14.63
2022-09-20T11:01:16.335Z,14.52
2022-09-20T11:04:23.656Z,14.45
2022-09-20T11:07:04.150Z,14.90
2022-09-20T11:09:45.674Z,15.02
2022-09-20T11:12:28.711Z,14.72
2022-09-20T11:15:00.520Z,14.52
2022-09-20T11:17:34.760Z,14.72
2022-09-20T11:20:09.444Z,14.57
2022-09-20T11:22:45.672Z,14.60
2022-09-20T11:25:20.846Z,14.60
2022-09-20T11:27:54.938Z,14.55
2022-09-20T11:30:24.749Z,14.43
2022-09-20T11:32:59.378Z,14.72
2022-09-20T11:35:33.673Z,14.86
2022-09-20T11:38:15.739Z,15.05
2022-09-20T11:40:51.828Z,14.78
2022-09-20T11:43:29.312Z,14.78
2022-09-20T11:46:02.948Z,14.97
2022-09-20T11:48:36.709Z,14.84
2022-09-20T11:51:31.412Z,15.00
2022-09-20T11:54:33.194Z,14.98
2022-09-20T11:57:01.404Z,14.94
2022-09-20T11:59:35.413Z,15.09
2022-09-20T12:02:16.643Z,15.33
2022-09-20T12:04:49.610Z,15.15
2022-09-20T12:07:20.505Z,15.05
2022-09-20T12:09:57.857Z,14.91
2022-09-20T12:12:39.347Z,15.10
2022-09-20T12:15:23.109Z,15.17
2022-09-20T12:18:39.843Z,14.99
2022-09-20T12:21:22.974Z,15.14
2022-09-20T12:24:22.654Z,15.28
2022-09-20T12:27:00.045Z,15.22
2022-09-20T12:29:57.459Z,15.05
2022-09-20T12:32:42.613Z,15.17
2022-09-20T12:35:56.000Z,15.38
2022-09-20T12:38:31.266Z,15.26
2022-09-20T12:41:01.581Z,15.28
2022-09-20T12:43:33.002Z,15.36
2022-09-20T12:46:06.371Z,15.28
2022-09-20T12:48:39.336Z,15.15
2022-09-20T12:51:38.211Z,15.25
2022-09-20T12:54:11.278Z,15.47
2022-09-20T12:56:47.341Z,15.54
2022-09-20T12:59:31.046Z,15.49
2022-09-20T13:02:34.311Z,15.39
2022-09-20T13:05:02.392Z,15.36
2022-09-20T13:07:53.532Z,15.55
2022-09-20T13:10:50.072Z,15.46
2022-09-20T13:13:31.887Z,15.45
2022-09-20T13:16:08.032Z,15.34
2022-09-20T13:18:42.965Z,15.23
2022-09-20T13:21:11.262Z,15.62
2022-09-20T13:23:48.409Z,15.62
2022-09-20T13:26:17.747Z,15.76
2022-09-20T13:28:51.654Z,15.69
2022-09-20T13:31:33.816Z,15.70
2022-09-20T13:34:16.938Z,16.05
2022-09-20T13:36:45.976Z,16.04
2022-09-20T13:39:33.432Z,16.18
2022-09-20T13:42:14.359Z,16.37
2022-09-20T13:44:48.797Z,16.29
2022-09-20T13:48:27.632Z,16.05
2022-09-20T13:55:00.826Z,16.42
2022-09-20T13:57:40.366Z,16.36
2022-09-20T14:00:19.230Z,16.25
2022-09-20T14:03:06.322Z,16.12
2022-09-20T14:06:27.878Z,15.89
2022-09-20T14:09:00.363Z,15.78
2022-09-20T14:11:34.099Z,15.75
2022-09-20T14:14:21.311Z,15.97
2022-09-20T14:20:56.895Z,15.51
2022-09-20T14:27:44.702Z,15.57
2022-09-20T14:31:01.794Z,15.21
2022-09-20T14:33:55.552Z,15.13
2022-09-20T14:36:45.371Z,15.13
2022-09-20T14:39:19.982Z,15.30
2022-09-20T14:41:50.026Z,15.13
2022-09-20T14:44:29.630Z,15.13
2022-09-20T14:47:18.732Z,15.06
2022-09-20T14:49:52.548Z,15.58
2022-09-20T14:52:39.526Z,15.72
2022-09-20T14:55:33.783Z,15.49
2022-09-20T14:58:18.556Z,15.36
2022-09-20T15:01:05.939Z,15.45
2022-09-20T15:03:42.477Z,15.34
2022-09-20T15:06:22.072Z,15.28
2022-09-20T15:09:00.453Z,15.48
2022-09-20T15:11:31.675Z,15.46
2022-09-20T15:14:00.778Z,15.65
2022-09-20T15:16:30.773Z,15.29
2022-09-20T15:18:59.965Z,15.65
2022-09-20T15:21:32.641Z,15.54
2022-09-20T15:24:06.560Z,15.42
2022-09-20T15:26:37.234Z,15.32
2022-09-20T15:29:07.708Z,15.16
2022-09-20T15:31:38.146Z,15.43
2022-09-20T15:34:12.829Z,15.26
2022-09-20T15:36:42.010Z,15.27
2022-09-20T15:39:10.953Z,15.44
2022-09-20T15:41:40.592Z,15.36
2022-09-20T15:44:11.774Z,15.62
2022-09-20T15:46:42.438Z,15.46
2022-09-20T15:49:14.353Z,15.79
2022-09-20T15:51:44.333Z,15.61
2022-09-20T15:54:15.730Z,15.33
2022-09-20T15:56:47.239Z,15.25
2022-09-20T15:59:23.466Z,15.34
2022-09-20T16:01:56.541Z,15.28
2022-09-20T16:04:27.164Z,15.24
2022-09-20T16:06:56.107Z,15.48
2022-09-20T16:09:32.381Z,15.32
2022-09-20T16:12:04.746Z,15.39
2022-09-20T16:14:39.673Z,15.32
2022-09-20T16:17:09.552Z,15.36
2022-09-20T16:19:40.289Z,15.54
2022-09-20T16:22:08.951Z,15.27
2022-09-20T16:25:15.313Z,15.12
2022-09-20T16:59:34.192Z,13.96
2022-09-20T17:02:47.107Z,13.87
2022-09-20T17:05:31.739Z,13.78
2022-09-20T17:08:03.936Z,13.74
2022-09-20T17:14:44.057Z,13.61
2022-09-20T17:17:13.153Z,13.60
2022-09-20T17:23:41.449Z,13.50
2022-09-20T17:26:13.758Z,13.44
2022-09-20T17:28:43.699Z,13.44
2022-09-20T17:31:15.174Z,13.38
2022-09-20T17:33:44.977Z,13.26
2022-09-20T17:36:16.690Z,13.19
2022-09-20T17:38:44.948Z,13.08
2022-09-20T17:41:18.371Z,13.04
2022-09-20T17:43:48.100Z,12.89
2022-09-20T17:46:20.382Z,12.85
2022-09-20T17:48:48.991Z,12.80
2022-09-20T17:51:18.788Z,12.73
2022-09-20T17:53:48.025Z,12.72
2022-09-20T17:56:16.478Z,12.66
2022-09-20T17:58:44.821Z,12.57
2022-09-20T18:01:15.331Z,12.49
2022-09-20T18:03:47.158Z,12.43
2022-09-20T18:06:17.552Z,12.36
2022-09-20T18:08:51.822Z,12.38
2022-09-20T18:11:24.040Z,12.29
2022-09-20T18:13:52.668Z,12.17
2022-09-20T18:16:21.133Z,12.09
2022-09-20T18:18:50.771Z,12.08
2022-09-20T18:21:20.610Z,12.11
2022-09-20T18:23:50.377Z,12.07
2022-09-20T18:26:24.355Z,12.04
2022-09-20T18:28:54.959Z,11.92
2022-09-20T18:31:24.153Z,11.89
2022-09-20T18:33:59.737Z,11.87
2022-09-20T18:36:28.621Z,11.85
2022-09-20T18:39:01.569Z,11.82
2022-09-20T18:41:32.978Z,11.76
2022-09-20T18:44:03.988Z,11.72
2022-09-20T18:46:33.049Z,11.69
2022-09-20T18:49:05.090Z,11.73
2022-09-20T18:51:39.054Z,11.64
2022-09-20T18:54:08.990Z,11.63
2022-09-20T18:56:38.391Z,11.60
2022-09-20T18:59:08.700Z,11.56
2022-09-20T19:01:52.719Z,11.46
2022-09-20T19:04:33.672Z,11.43
2022-09-20T19:07:09.753Z,11.36
2022-09-20T19:09:46.947Z,11.33
2022-09-20T19:12:21.923Z,11.32
2022-09-20T19:15:13.102Z,11.30
2022-09-20T19:17:55.454Z,11.22
2022-09-20T19:20:34.961Z,11.22
2022-09-20T19:23:16.299Z,11.21
2022-09-20T19:25:48.694Z,11.10
2022-09-20T19:28:17.606Z,11.11
2022-09-20T19:30:48.163Z,11.09
2022-09-20T19:33:18.522Z,11.10
2022-09-20T19:35:51.381Z,10.92
2022-09-20T19:38:34.251Z,10.94
2022-09-20T19:41:14.249Z,10.95
2022-09-20T19:44:05.177Z,10.87
2022-09-20T19:46:45.306Z,10.81
2022-09-20T19:49:15.649Z,10.67
2022-09-20T19:51:45.949Z,10.72
2022-09-20T19:54:15.933Z,10.76
2022-09-20T19:56:55.476Z,10.80
2022-09-20T19:59:25.754Z,10.77
2022-09-20T20:01:55.002Z,10.96
2022-09-20T20:04:24.011Z,10.90
2022-09-20T20:07:02.073Z,10.87
2022-09-20T20:09:40.074Z,10.87
2022-09-20T20:12:15.824Z,10.82
2022-09-20T20:14:55.678Z,10.81
2022-09-20T20:17:41.609Z,10.80
2022-09-20T20:20:20.875Z,10.80
2022-09-20T20:23:27.875Z,10.77
2022-09-20T20:26:03.041Z,10.88
2022-09-20T20:28:31.600Z,10.85
2022-09-20T20:31:02.226Z,10.72
2022-09-20T20:33:32.104Z,10.81
2022-09-20T20:36:02.323Z,10.81
2022-09-20T20:38:32.659Z,10.73
2022-09-20T20:41:04.648Z,10.80
2022-09-20T20:43:33.214Z,10.86
2022-09-20T20:46:01.372Z,10.87
2022-09-20T20:48:30.155Z,10.85
2022-09-20T20:51:02.884Z,10.73
2022-09-20T20:53:34.263Z,10.84
2022-09-20T20:56:04.051Z,10.94
2022-09-20T20:58:33.662Z,11.03
2022-09-20T21:01:06.545Z,10.94
2022-09-20T21:03:35.319Z,10.91
2022-09-20T21:06:04.987Z,10.94
2022-09-20T21:08:35.972Z,10.94
2022-09-20T21:11:06.372Z,10.98
2022-09-20T21:13:35.304Z,11.01
2022-09-20T21:16:08.912Z,10.94
2022-09-20T21:18:37.289Z,10.92
2022-09-20T21:21:06.713Z,10.87
2022-09-20T21:23:36.349Z,10.81
2022-09-20T21:26:08.549Z,10.80
2022-09-20T21:28:38.355Z,10.70
2022-09-20T21:31:08.012Z,10.72
2022-09-20T21:33:38.756Z,10.67
2022-09-20T21:36:08.893Z,10.66
2022-09-20T21:38:38.319Z,10.66
2022-09-20T21:41:08.773Z,10.61
2022-09-20T21:43:37.346Z,10.53
2022-09-20T21:46:05.282Z,10.50
2022-09-20T21:48:33.636Z,10.44
2022-09-20T21:51:03.325Z,10.42
2022-09-20T21:53:31.492Z,10.40
2022-09-20T21:56:02.210Z,10.38
2022-09-20T21:58:30.775Z,10.36
2022-09-20T22:01:00.845Z,10.32
2022-09-20T22:03:36.543Z,10.27
2022-09-20T22:06:09.428Z,10.26
2022-09-20T22:08:38.591Z,10.22
2022-09-20T22:11:12.281Z,10.23
2022-09-20T22:13:43.691Z,10.17
2022-09-20T22:16:14.731Z,10.12
2022-09-20T22:18:44.306Z,10.07
2022-09-20T22:21:13.982Z,10.08
2022-09-20T22:23:42.771Z,10.06
2022-09-20T22:26:15.240Z,9.96
2022-09-20T22:28:43.645Z,9.96
2022-09-20T22:31:14.168Z,9.89
2022-09-20T22:33:44.432Z,9.76
2022-09-20T22:36:14.275Z,9.82
2022-09-20T22:38:43.132Z,9.63
2022-09-20T22:41:13.250Z,9.68
2022-09-20T22:43:41.813Z,9.71
2022-09-20T22:46:11.217Z,9.74
2022-09-20T22:48:39.931Z,9.69
2022-09-20T22:51:09.773Z,9.65
2022-09-20T22:53:38.069Z,9.64
2022-09-20T22:56:07.534Z,9.60
2022-09-20T22:58:38.452Z,9.53
2022-09-20T23:01:08.194Z,9.54
2022-09-20T23:03:36.452Z,9.54
2022-09-20T23:06:04.560Z,9.52
2022-09-20T23:08:33.582Z,9.50
2022-09-20T23:11:03.216Z,9.45
2022-09-20T23:13:31.440Z,9.49
2022-09-20T23:16:00.715Z,9.46
2022-09-20T23:18:28.643Z,9.48
2022-09-20T23:21:00.736Z,9.45
2022-09-20T23:23:28.747Z,9.40
2022-09-20T23:25:57.000Z,9.41
2022-09-20T23:28:27.344Z,9.45
2022-09-20T23:30:55.300Z,9.34
2022-09-20T23:33:24.724Z,9.40
2022-09-20T23:35:52.842Z,9.34
2022-09-20T23:38:20.774Z,9.32
2022-09-20T23:40:48.679Z,9.35
2022-09-20T23:43:16.775Z,9.32
2022-09-20T23:45:45.024Z,9.34
2022-09-20T23:48:12.964Z,9.32
2022-09-20T23:50:44.150Z,9.22
2022-09-20T23:53:12.151Z,9.20
2022-09-20T23:55:40.164Z,9.24
2022-09-20T23:58:08.119Z,9.21
